Duluth, Minnesota
Current Conditions -  °F | °C
As of 5:55 PM on Saturday 20 Dec 2014 (Local Time) from KDLH Reporting Station
Haze Haze  
Wind Chill: 21°   Ceiling: 900
Heat Index: 30°   Visibility: 6mi
Dew Point: 25°   Wind: 10mph
Humidity: 82%   Direction: 190°S
Pressure: 30.05"   Gusts: NA
Location:  46.79°N, 92.09°W
Report Text: KDLH 202355Z 19009KT 6SM HZ OVC009 M01/M04 A3005 RMK AO2 SLP200 60000 T10111039 11011 21022 58004
Loading
Personal Weather Stations






























Interactive Weather Map New forecast layout! Learn more

10-Day Weather Forecast

Advertisements
Track Severe Weather on mobile